Time;durP1;ratioP1;P1;durP2;ratioP2;P2;SDS_P1;SDS_P2;PMS_P1;PMS_P2;Temp;Humidity;BMP_temperature;BMP_pressure;BME280_temperature;BME280_humidity;BME280_pressure;Samples;Min_cycle;Max_cycle;Signal;HPM_P1;HPM_P2
2023/05/25 00:00:17;;;;;;;10.80;3.97;;;;;;;22.27;48.50;101029.91;5037106;28;20378;-79
2023/05/25 00:02:45;;;;;;;12.05;4.20;;;;;;;22.22;48.33;101021.69;5036692;28;20375;-79
2023/05/25 00:05:11;;;;;;;11.33;4.10;;;;;;;22.23;48.50;101041.38;5035245;28;20374;-79
2023/05/25 00:07:37;;;;;;;12.87;4.10;;;;;;;22.13;48.37;101032.03;5038861;28;20486;-79
2023/05/25 00:10:03;;;;;;;10.27;3.90;;;;;;;22.01;48.73;101035.81;5037195;28;20444;-79
2023/05/25 00:12:28;;;;;;;10.43;4.13;;;;;;;21.88;49.01;101035.03;5037115;28;20389;-79
2023/05/25 00:14:54;;;;;;;10.57;4.07;;;;;;;21.80;49.54;101039.94;5036116;28;20402;-79
2023/05/25 00:17:20;;;;;;;9.90;4.07;;;;;;;21.74;49.65;101044.44;5037554;28;20378;-80
2023/05/25 00:19:46;;;;;;;12.05;4.00;;;;;;;21.71;49.76;101040.31;5037239;28;20389;-80
2023/05/25 00:22:11;;;;;;;10.07;4.05;;;;;;;21.68;49.77;101050.75;5037175;28;20390;-79
2023/05/25 00:24:38;;;;;;;10.10;3.97;;;;;;;21.77;49.53;101050.16;5037500;28;20398;-79
2023/05/25 00:27:05;;;;;;;11.95;4.00;;;;;;;21.79;49.45;101035.59;5035468;28;20394;-79
2023/05/25 00:29:31;;;;;;;13.18;4.15;;;;;;;21.75;49.38;101044.19;5035637;28;20378;-79
2023/05/25 00:31:56;;;;;;;11.40;4.17;;;;;;;21.75;49.51;101035.25;5038666;28;20395;-80
2023/05/25 00:34:22;;;;;;;10.27;3.80;;;;;;;21.66;49.59;101042.91;5057743;28;20505;-80
2023/05/25 00:36:48;;;;;;;11.77;4.03;;;;;;;21.61;49.88;101050.88;5043474;28;20479;-80
2023/05/25 00:39:15;;;;;;;12.80;4.18;;;;;;;21.51;50.09;101045.25;5047139;28;20386;-80
2023/05/25 00:41:43;;;;;;;9.93;4.03;;;;;;;21.42;50.52;101057.41;5034407;28;20388;-80
2023/05/25 00:44:09;;;;;;;10.20;4.15;;;;;;;21.33;50.83;101048.84;5052966;28;20389;-80
2023/05/25 00:46:39;;;;;;;12.40;4.07;;;;;;;21.26;50.94;101048.94;5057617;28;20442;-80
2023/05/25 00:49:04;;;;;;;9.67;4.17;;;;;;;21.17;51.24;101042.25;5045708;28;20413;-81
2023/05/25 00:51:35;;;;;;;11.07;3.92;;;;;;;21.04;51.59;101040.59;5040102;28;20383;-80
2023/05/25 00:54:01;;;;;;;11.95;4.03;;;;;;;20.95;51.76;101040.13;5042834;28;20397;-81
2023/05/25 00:56:30;;;;;;;11.07;4.10;;;;;;;20.94;51.98;101048.44;5039173;28;20414;-81
2023/05/25 00:58:59;;;;;;;15.60;4.60;;;;;;;20.98;51.81;101044.25;5041188;28;20380;-81
2023/05/25 01:01:27;;;;;;;9.60;3.85;;;;;;;20.96;51.62;101040.97;5040859;28;20392;-80
2023/05/25 01:03:56;;;;;;;11.13;4.15;;;;;;;20.85;52.18;101052.50;5045773;28;20377;-79
2023/05/25 01:06:22;;;;;;;11.35;3.95;;;;;;;20.74;52.38;101043.34;5053868;28;20388;-79
2023/05/25 01:08:59;;;;;;;11.63;4.20;;;;;;;20.70;52.38;101039.47;5046427;28;20401;-80
2023/05/25 01:11:30;;;;;;;12.85;4.40;;;;;;;20.59;52.48;101043.72;5039473;28;20396;-80
2023/05/25 01:13:57;;;;;;;10.77;4.40;;;;;;;20.54;52.44;101041.72;5038041;28;20420;-80
2023/05/25 01:16:27;;;;;;;9.85;3.95;;;;;;;20.55;52.51;101051.44;5054306;28;20388;-79
2023/05/25 01:18:52;;;;;;;13.02;4.30;;;;;;;20.55;52.35;101045.25;5053831;28;20408;-80
2023/05/25 01:21:28;;;;;;;11.03;4.27;;;;;;;20.48;52.57;101041.81;5053493;28;20464;-80
2023/05/25 01:24:04;;;;;;;10.85;4.20;;;;;;;20.50;52.37;101042.41;5037296;28;20398;-80
2023/05/25 01:26:36;;;;;;;11.43;4.40;;;;;;;20.49;52.23;101046.13;5046457;28;20530;-80
2023/05/25 01:29:03;;;;;;;11.25;4.28;;;;;;;20.46;52.26;101046.63;5042603;28;20747;-80
2023/05/25 01:31:29;;;;;;;9.57;4.10;;;;;;;20.43;52.49;101053.25;5048849;28;20388;-80
2023/05/25 01:33:55;;;;;;;13.00;4.70;;;;;;;20.38;52.52;101045.88;5051737;28;20389;-79
2023/05/25 01:36:21;;;;;;;16.92;5.00;;;;;;;20.33;52.53;101044.88;5043437;28;21094;-79
2023/05/25 01:38:47;;;;;;;11.33;4.50;;;;;;;20.33;52.80;101042.19;5046053;28;20784;-78
2023/05/25 01:41:13;;;;;;;14.10;5.05;;;;;;;20.33;52.71;101048.44;5043908;28;20481;-78
2023/05/25 01:43:40;;;;;;;13.52;4.93;;;;;;;20.24;52.92;101041.72;5040636;28;20704;-79
2023/05/25 01:46:13;;;;;;;8.60;4.22;;;;;;;20.23;52.85;101051.63;5037413;28;20386;-78
2023/05/25 01:48:58;;;;;;;11.02;4.65;;;;;;;20.18;53.01;101047.97;5048598;28;20493;-79
2023/05/25 01:51:54;;;;;;;12.00;4.72;;;;;;;20.19;52.80;101055.03;5044239;28;20407;-78
2023/05/25 01:54:22;;;;;;;12.43;4.50;;;;;;;20.15;53.03;101048.44;5020213;28;20414;-79
2023/05/25 01:56:49;;;;;;;10.93;4.50;;;;;;;20.05;53.17;101054.34;5018320;28;20392;-78
2023/05/25 01:59:19;;;;;;;11.95;4.78;;;;;;;19.91;53.63;101058.22;5016811;28;20403;-79
2023/05/25 02:01:47;;;;;;;12.70;4.75;;;;;;;19.94;53.46;101057.78;5020667;28;20470;-79
2023/05/25 02:04:14;;;;;;;13.55;4.75;;;;;;;19.86;53.73;101054.34;5019164;28;20441;-79
2023/05/25 02:06:39;;;;;;;12.95;4.88;;;;;;;19.79;54.01;101050.06;5017614;28;20410;-79
2023/05/25 02:09:05;;;;;;;10.50;4.65;;;;;;;19.73;54.13;101051.78;5016944;28;20489;-79
2023/05/25 02:11:30;;;;;;;13.57;5.00;;;;;;;19.81;53.85;101050.69;5017079;28;21295;-79
2023/05/25 02:13:56;;;;;;;12.73;5.10;;;;;;;19.82;53.88;101058.50;5019308;28;20463;-79
2023/05/25 02:16:21;;;;;;;12.35;4.70;;;;;;;19.67;54.12;101058.03;5017642;28;20899;-80
2023/05/25 02:18:47;;;;;;;14.73;4.77;;;;;;;19.61;54.36;101064.31;5022431;28;20407;-79
2023/05/25 02:21:12;;;;;;;13.50;4.97;;;;;;;19.50;54.59;101057.78;5019109;28;20476;-80
2023/05/25 02:23:38;;;;;;;13.17;5.03;;;;;;;19.64;54.16;101067.38;5026789;28;20402;-79
2023/05/25 02:26:03;;;;;;;13.23;4.80;;;;;;;19.70;53.91;101071.03;5049984;28;20400;-79
2023/05/25 02:28:29;;;;;;;12.10;5.17;;;;;;;19.75;53.90;101083.84;5030887;28;21149;-80
2023/05/25 02:30:54;;;;;;;14.00;5.27;;;;;;;19.63;54.33;101081.84;5048860;28;20402;-78
2023/05/25 02:33:20;;;;;;;16.95;5.38;;;;;;;19.49;54.72;101075.75;5044235;28;20392;-79
2023/05/25 02:35:45;;;;;;;16.13;5.17;;;;;;;19.52;54.76;101085.28;5042923;28;20400;-79
2023/05/25 02:38:11;;;;;;;13.82;5.10;;;;;;;19.52;54.69;101093.34;5043226;28;20465;-79
2023/05/25 02:40:36;;;;;;;13.53;5.10;;;;;;;19.55;54.57;101092.06;5041531;28;20503;-80
2023/05/25 02:43:02;;;;;;;12.90;5.10;;;;;;;19.57;54.40;101098.03;5040940;28;20413;-80
2023/05/25 02:45:27;;;;;;;17.03;5.50;;;;;;;19.46;54.65;101091.50;5046970;28;20883;-80
2023/05/25 02:47:52;;;;;;;14.23;5.10;;;;;;;19.47;54.57;101099.38;5047758;28;20497;-80
2023/05/25 02:50:18;;;;;;;16.08;5.28;;;;;;;19.45;54.69;101096.06;5037000;28;20405;-79
2023/05/25 02:52:43;;;;;;;13.03;5.60;;;;;;;19.37;55.08;101099.03;5045706;28;20419;-79
2023/05/25 02:55:12;;;;;;;14.13;5.17;;;;;;;19.28;55.20;101086.91;5055644;28;20385;-79
2023/05/25 02:57:37;;;;;;;14.20;5.33;;;;;;;19.33;55.10;101091.63;5045617;28;20381;-80
2023/05/25 03:00:05;;;;;;;13.17;5.33;;;;;;;19.34;55.20;101094.09;5038782;28;20469;-81
2023/05/25 03:02:31;;;;;;;11.63;5.15;;;;;;;19.33;55.15;101097.81;5040024;28;20770;-80
2023/05/25 03:04:57;;;;;;;14.55;5.22;;;;;;;19.34;55.09;101096.78;5039801;28;20544;-79
2023/05/25 03:07:25;;;;;;;11.27;4.90;;;;;;;19.34;54.96;101096.78;5038201;28;20593;-79
2023/05/25 03:09:51;;;;;;;14.15;5.53;;;;;;;19.40;54.88;101112.03;5032878;28;20944;-79
2023/05/25 03:12:16;;;;;;;17.07;5.37;;;;;;;19.41;55.01;101108.31;5037778;28;20396;-78
2023/05/25 03:14:42;;;;;;;13.02;5.30;;;;;;;19.37;54.88;101100.91;5035301;28;20487;-79
2023/05/25 03:17:07;;;;;;;14.07;5.40;;;;;;;19.40;54.79;101103.97;5041186;28;20941;-79
2023/05/25 03:19:33;;;;;;;13.80;5.80;;;;;;;19.42;54.89;101111.81;5033842;28;20515;-79
2023/05/25 03:21:58;;;;;;;12.93;5.33;;;;;;;19.45;54.69;101114.09;5029137;28;20411;-79
2023/05/25 03:24:25;;;;;;;11.32;5.00;;;;;;;19.46;54.61;101102.28;5026975;28;20404;-79
2023/05/25 03:26:50;;;;;;;14.50;5.35;;;;;;;19.46;54.71;101110.34;5024689;28;20514;-79
2023/05/25 03:29:16;;;;;;;12.48;5.35;;;;;;;19.39;54.97;101117.63;5025166;28;20454;-80
2023/05/25 03:31:42;;;;;;;12.63;5.40;;;;;;;19.31;55.24;101115.22;5025023;28;20392;-79
2023/05/25 03:34:08;;;;;;;12.15;5.22;;;;;;;19.30;55.28;101119.75;5026836;28;20860;-81
2023/05/25 03:36:34;;;;;;;11.68;5.68;;;;;;;19.29;55.33;101120.81;5029599;28;20380;-79
2023/05/25 03:38:59;;;;;;;15.33;5.63;;;;;;;19.14;55.62;101126.50;5024399;28;20384;-79
2023/05/25 03:41:25;;;;;;;13.85;5.43;;;;;;;18.93;56.37;101124.16;5029193;28;20386;-78
2023/05/25 03:43:51;;;;;;;12.50;5.10;;;;;;;18.87;56.53;101126.66;5029236;28;20376;-78
2023/05/25 03:46:16;;;;;;;13.75;5.72;;;;;;;19.00;56.34;101128.44;5030571;28;20384;-79
2023/05/25 03:48:42;;;;;;;13.50;5.40;;;;;;;19.03;56.21;101121.78;5026166;28;20669;-79
2023/05/25 03:51:07;;;;;;;23.27;5.83;;;;;;;19.17;55.77;101125.25;5029789;28;20449;-80
2023/05/25 03:53:33;;;;;;;14.25;5.55;;;;;;;19.26;55.60;101138.19;5027647;28;20384;-79
2023/05/25 03:55:59;;;;;;;13.07;5.33;;;;;;;19.17;55.84;101131.44;5028393;28;20374;-80
2023/05/25 03:58:25;;;;;;;17.90;5.60;;;;;;;19.18;55.91;101130.41;5043845;28;20381;-80
2023/05/25 04:00:51;;;;;;;14.55;5.55;;;;;;;19.22;56.11;101125.41;5039662;28;20390;-80
2023/05/25 04:03:17;;;;;;;12.55;5.40;;;;;;;19.20;56.14;101124.81;5034266;28;20752;-79
2023/05/25 04:05:44;;;;;;;15.77;5.72;;;;;;;19.37;55.83;101128.59;5034627;28;20724;-80
2023/05/25 04:08:13;;;;;;;12.93;5.05;;;;;;;19.26;56.01;101124.75;5031459;28;20472;-81
2023/05/25 04:10:38;;;;;;;10.70;5.32;;;;;;;19.19;56.50;101129.34;5031489;28;20404;-80
2023/05/25 04:13:04;;;;;;;13.53;5.10;;;;;;;19.18;56.64;101124.22;5025866;28;20864;-79
2023/05/25 04:15:29;;;;;;;10.60;5.03;;;;;;;19.11;57.01;101132.31;5027428;28;20393;-79
2023/05/25 04:17:58;;;;;;;10.10;5.00;;;;;;;19.10;56.96;101131.50;5041339;28;20386;-79
2023/05/25 04:20:23;;;;;;;12.23;5.32;;;;;;;19.16;56.97;101134.31;5035778;28;20397;-79
2023/05/25 04:22:49;;;;;;;12.45;5.45;;;;;;;19.19;57.00;101137.41;5034653;28;20386;-78
2023/05/25 04:25:15;;;;;;;9.57;5.10;;;;;;;19.16;57.10;101143.22;5040289;28;20398;-80
2023/05/25 04:27:41;;;;;;;13.30;5.72;;;;;;;19.18;57.05;101143.84;5040524;28;20426;-80
2023/05/25 04:30:07;;;;;;;13.00;5.00;;;;;;;19.18;57.15;101143.84;5049580;28;20414;-80
2023/05/25 04:32:36;;;;;;;10.75;5.15;;;;;;;19.24;57.11;101144.84;5053086;28;21839;-80
2023/05/25 04:35:02;;;;;;;12.25;5.50;;;;;;;19.29;57.12;101156.56;5049817;28;20409;-80
2023/05/25 04:37:29;;;;;;;16.25;5.82;;;;;;;19.32;57.01;101143.72;5069045;28;20377;-80
2023/05/25 04:39:56;;;;;;;11.88;5.43;;;;;;;19.44;56.86;101150.06;5039799;28;20413;-83
2023/05/25 04:42:22;;;;;;;13.63;5.30;;;;;;;19.45;56.76;101151.72;5043579;28;20375;-81
2023/05/25 04:44:50;;;;;;;13.77;5.72;;;;;;;19.45;56.75;101152.53;5036587;28;20898;-80
2023/05/25 04:47:15;;;;;;;12.57;5.83;;;;;;;19.46;57.00;101158.72;5035440;28;20449;-80
2023/05/25 04:49:41;;;;;;;13.20;6.25;;;;;;;19.55;56.82;101167.34;5035287;28;20425;-81
2023/05/25 04:52:06;;;;;;;11.97;5.37;;;;;;;19.52;57.20;101165.94;5036287;28;20483;-81
2023/05/25 04:54:32;;;;;;;16.83;6.00;;;;;;;19.52;57.12;101162.41;5037226;28;20391;-80
2023/05/25 04:56:57;;;;;;;14.17;6.60;;;;;;;19.58;57.15;101161.56;5038868;28;20368;-81
2023/05/25 04:59:23;;;;;;;16.90;6.57;;;;;;;19.68;57.13;101178.84;5045976;28;20386;-81
2023/05/25 05:01:48;;;;;;;17.53;6.57;;;;;;;19.74;57.11;101182.56;5042787;28;20379;-82
2023/05/25 05:04:15;;;;;;;15.48;6.47;;;;;;;19.85;56.84;101186.41;5037307;28;20366;-81
2023/05/25 05:06:40;;;;;;;12.57;6.05;;;;;;;19.94;56.71;101185.06;5046322;28;20389;-81
2023/05/25 05:09:06;;;;;;;15.13;6.90;;;;;;;19.96;56.91;101184.84;5034071;28;20382;-81
2023/05/25 05:11:32;;;;;;;13.32;6.90;;;;;;;20.06;56.66;101185.19;5033976;28;20378;-80
2023/05/25 05:13:58;;;;;;;12.87;5.80;;;;;;;20.18;56.43;101191.47;5038897;28;20751;-80
2023/05/25 05:16:23;;;;;;;13.07;5.50;;;;;;;20.14;56.52;101192.94;5041579;28;20398;-80
2023/05/25 05:18:49;;;;;;;12.52;6.68;;;;;;;20.20;56.44;101200.16;5040883;28;20384;-82
2023/05/25 05:21:15;;;;;;;8.93;5.28;;;;;;;20.28;56.38;101203.59;5041216;28;20391;-81
2023/05/25 05:23:43;;;;;;;13.50;5.40;;;;;;;20.33;56.17;101206.44;5041565;28;20396;-80
2023/05/25 05:26:10;;;;;;;10.75;5.28;;;;;;;20.27;56.17;101208.16;5037718;28;20386;-80
2023/05/25 05:28:36;;;;;;;12.43;5.28;;;;;;;20.12;56.76;101211.19;5021209;28;20412;-80
2023/05/25 05:31:02;;;;;;;13.43;5.15;;;;;;;20.24;56.35;101216.69;5042995;28;20392;-81
2023/05/25 05:33:27;;;;;;;11.15;5.32;;;;;;;20.21;56.65;101209.88;5029246;28;20556;-81
2023/05/25 05:35:53;;;;;;;12.83;5.03;;;;;;;20.20;56.75;101218.16;5048392;28;20387;-80
2023/05/25 05:38:19;;;;;;;12.52;5.13;;;;;;;20.28;56.89;101219.75;5036123;28;20441;-80
2023/05/25 05:40:44;;;;;;;13.17;5.23;;;;;;;20.19;56.88;101221.91;5048343;28;20386;-80
2023/05/25 05:43:12;;;;;;;19.13;5.93;;;;;;;20.21;57.07;101225.19;5037814;28;20394;-79
2023/05/25 05:45:39;;;;;;;11.32;4.70;;;;;;;20.31;56.92;101222.84;5034942;28;20378;-80
2023/05/25 05:48:08;;;;;;;11.63;4.75;;;;;;;20.40;56.58;101216.13;5049913;28;20414;-80
2023/05/25 05:50:35;;;;;;;8.80;4.68;;;;;;;20.56;56.41;101221.94;5039127;28;20492;-80
2023/05/25 05:53:01;;;;;;;10.25;4.90;;;;;;;20.57;56.40;101221.72;5025462;28;20392;-80
2023/05/25 05:55:26;;;;;;;13.68;4.70;;;;;;;20.58;56.23;101220.69;5050180;28;20394;-81
2023/05/25 05:57:52;;;;;;;10.93;4.97;;;;;;;20.54;55.99;101219.47;5038046;28;20469;-79
2023/05/25 06:00:18;;;;;;;11.33;4.70;;;;;;;20.37;56.63;101221.94;5033982;28;20390;-81
2023/05/25 06:02:44;;;;;;;10.77;4.60;;;;;;;20.42;56.60;101222.09;5047746;28;20925;-81
2023/05/25 06:05:09;;;;;;;8.57;4.53;;;;;;;20.59;56.16;101222.31;5043312;28;20606;-80
2023/05/25 06:07:36;;;;;;;11.05;4.55;;;;;;;20.72;55.82;101217.84;5040919;28;20746;-81
2023/05/25 06:10:02;;;;;;;12.68;5.10;;;;;;;20.84;55.58;101213.38;5034411;28;20460;-81
2023/05/25 06:12:28;;;;;;;15.30;5.43;;;;;;;20.95;55.36;101228.75;5048652;28;20377;-81
2023/05/25 06:14:53;;;;;;;10.88;4.43;;;;;;;21.03;55.10;101224.13;5034420;28;20418;-80
2023/05/25 06:17:19;;;;;;;9.50;4.20;;;;;;;21.15;55.00;101231.19;5034747;28;20371;-81
2023/05/25 06:19:44;;;;;;;9.15;4.28;;;;;;;21.18;54.76;101219.97;5039858;28;20451;-82
2023/05/25 06:22:10;;;;;;;14.00;4.87;;;;;;;21.25;54.68;101222.59;5040282;28;20386;-82
2023/05/25 06:24:35;;;;;;;7.50;3.83;;;;;;;21.29;54.10;101221.06;5040374;28;20386;-81
2023/05/25 06:27:02;;;;;;;10.80;4.60;;;;;;;21.42;53.92;101235.41;5043587;28;20422;-81
2023/05/25 06:29:28;;;;;;;8.02;4.30;;;;;;;21.50;53.33;101248.59;5035123;28;20927;-81
2023/05/25 06:31:53;;;;;;;9.20;4.68;;;;;;;21.35;53.53;101238.19;5044229;28;20387;-81
2023/05/25 06:34:19;;;;;;;9.37;4.60;;;;;;;21.36;53.49;101245.25;5032674;28;20715;-81
2023/05/25 06:36:46;;;;;;;9.20;4.63;;;;;;;21.44;53.17;101230.63;5037336;28;20525;-82
2023/05/25 06:39:12;;;;;;;10.73;5.47;;;;;;;21.62;52.92;101241.38;5032091;28;20388;-82
2023/05/25 06:41:39;;;;;;;10.00;4.35;;;;;;;21.81;52.60;101252.09;5035691;28;20392;-82
2023/05/25 06:44:05;;;;;;;12.67;5.03;;;;;;;21.88;52.57;101248.25;5033697;28;20386;-82
2023/05/25 06:46:31;;;;;;;8.13;4.70;;;;;;;21.89;52.16;101240.94;5049452;28;20388;-81
2023/05/25 06:49:17;;;;;;;9.75;4.45;;;;;;;21.86;52.33;101249.50;5048331;28;20402;-80
2023/05/25 06:51:42;;;;;;;10.52;4.85;;;;;;;21.68;52.63;101245.84;5046577;28;20442;-81
2023/05/25 06:54:08;;;;;;;8.30;4.10;;;;;;;21.82;53.44;101240.25;5054852;28;20384;-81
2023/05/25 06:56:33;;;;;;;9.97;4.60;;;;;;;22.15;53.79;101248.63;5050731;28;20401;-81
2023/05/25 06:58:59;;;;;;;10.30;5.03;;;;;;;22.07;52.32;101253.53;5042860;28;20469;-81
2023/05/25 07:01:25;;;;;;;12.17;4.60;;;;;;;21.85;52.00;101234.38;5048231;28;20391;-81
2023/05/25 07:03:51;;;;;;;9.55;3.95;;;;;;;21.85;51.92;101235.19;5045546;28;20406;-82
2023/05/25 07:06:16;;;;;;;10.67;4.13;;;;;;;22.27;53.04;101240.56;5027557;28;20451;-82
2023/05/25 07:08:42;;;;;;;10.77;4.60;;;;;;;22.42;51.11;101250.88;5044219;28;20415;-81
2023/05/25 07:11:11;;;;;;;9.65;4.32;;;;;;;22.52;51.43;101251.09;5063528;28;21576;-81
2023/05/25 07:13:36;;;;;;;13.27;5.00;;;;;;;22.68;50.77;101259.53;5054262;28;20409;-81
2023/05/25 07:16:02;;;;;;;10.65;4.80;;;;;;;22.76;51.04;101269.16;5042663;28;20416;-80
2023/05/25 07:18:27;;;;;;;13.70;5.47;;;;;;;22.74;51.66;101257.75;5060687;28;20393;-81
2023/05/25 07:20:53;;;;;;;11.93;4.93;;;;;;;22.74;51.91;101269.38;5031409;28;20430;-82
2023/05/25 07:23:18;;;;;;;9.07;5.10;;;;;;;22.81;52.02;101261.97;5052105;28;20388;-81
2023/05/25 07:25:44;;;;;;;9.90;4.87;;;;;;;22.98;52.09;101270.19;5046822;28;20450;-83
2023/05/25 07:28:10;;;;;;;13.00;5.38;;;;;;;23.12;51.80;101265.34;5052407;28;20495;-82
2023/05/25 07:30:35;;;;;;;14.23;5.20;;;;;;;23.04;51.97;101274.66;5057592;28;20547;-82
2023/05/25 07:33:01;;;;;;;10.90;5.57;;;;;;;22.97;51.89;101265.81;5047489;28;20457;-81
2023/05/25 07:35:27;;;;;;;16.47;5.90;;;;;;;23.08;52.00;101273.13;5052512;28;20400;-82
2023/05/25 07:37:59;;;;;;;11.50;5.10;;;;;;;23.13;51.37;101255.34;5048132;28;20380;-81
2023/05/25 07:40:25;;;;;;;11.10;5.07;;;;;;;23.28;51.15;101261.88;5037784;28;20386;-81
2023/05/25 07:42:50;;;;;;;13.93;5.27;;;;;;;23.31;51.19;101260.56;5053275;28;20391;-81
2023/05/25 07:45:16;;;;;;;14.00;5.72;;;;;;;23.47;50.59;101261.69;5048939;28;20455;-81
2023/05/25 07:47:41;;;;;;;13.87;5.30;;;;;;;23.45;50.53;101267.31;5052264;28;20425;-80
2023/05/25 07:50:08;;;;;;;13.47;5.80;;;;;;;23.50;50.97;101263.06;5043786;28;20401;-83
2023/05/25 07:52:33;;;;;;;10.23;4.70;;;;;;;23.64;50.52;101267.09;5038625;28;20390;-81
2023/05/25 07:54:58;;;;;;;9.45;4.80;;;;;;;23.73;50.15;101271.06;5036875;28;20386;-83
2023/05/25 07:57:24;;;;;;;11.40;5.00;;;;;;;23.66;49.98;101268.53;5047555;28;20791;-82
2023/05/25 07:59:50;;;;;;;14.27;5.30;;;;;;;23.74;49.85;101255.66;5029092;28;20384;-81
2023/05/25 08:02:15;;;;;;;17.08;5.78;;;;;;;23.75;49.81;101255.41;5057104;28;20389;-82
2023/05/25 08:04:41;;;;;;;13.90;5.77;;;;;;;23.88;49.81;101258.88;5044337;28;20725;-82
2023/05/25 08:07:06;;;;;;;14.17;5.37;;;;;;;23.82;49.61;101258.81;5038204;28;20438;-82
2023/05/25 08:09:32;;;;;;;17.17;6.25;;;;;;;23.97;48.98;101262.84;5034244;28;20451;-82
2023/05/25 08:11:57;;;;;;;12.33;5.57;;;;;;;24.01;49.26;101263.97;5034261;28;20409;-81
2023/05/25 08:14:23;;;;;;;12.23;5.30;;;;;;;24.03;48.82;101275.38;5035797;28;20418;-82
2023/05/25 08:16:50;;;;;;;13.23;5.32;;;;;;;23.93;49.15;101267.94;5050781;28;20867;-83
2023/05/25 08:19:15;;;;;;;13.20;5.83;;;;;;;24.02;49.16;101276.44;5048593;28;20481;-80
2023/05/25 08:21:41;;;;;;;13.65;5.18;;;;;;;24.12;49.00;101286.63;5048597;28;20385;-82
2023/05/25 08:24:07;;;;;;;10.05;4.65;;;;;;;24.06;48.75;101277.59;5043021;28;20386;-81
2023/05/25 08:26:35;;;;;;;11.87;5.00;;;;;;;24.00;48.65;101279.41;5040338;28;20711;-82
2023/05/25 08:29:03;;;;;;;10.43;5.15;;;;;;;23.89;48.79;101287.59;5051749;28;20392;-80
2023/05/25 08:31:30;;;;;;;12.47;5.40;;;;;;;23.67;49.52;101280.16;5035127;28;20423;-81
2023/05/25 08:33:55;;;;;;;13.38;5.75;;;;;;;23.51;50.51;101281.75;5043199;28;20404;-84
2023/05/25 08:36:21;;;;;;;15.35;6.88;;;;;;;23.49;51.84;101275.78;5050051;28;20382;-88
2023/05/25 08:38:46;;;;;;;17.93;6.03;;;;;;;23.29;53.39;101276.22;5079876;28;20676;-92
2023/05/25 08:41:12;;;;;;;16.13;7.10;;;;;;;23.08;54.26;101266.88;5080786;28;20393;-90
2023/05/25 08:43:38;;;;;;;13.80;7.05;;;;;;;23.01;54.73;101266.16;5066946;28;20396;-92
2023/05/25 08:46:05;;;;;;;16.03;7.60;;;;;;;22.96;55.24;101264.19;5064653;28;20385;-92
2023/05/25 08:48:36;;;;;;;16.63;8.20;;;;;;;22.89;55.99;101250.78;5048841;28;20498;-91
2023/05/25 08:51:09;;;;;;;16.63;8.57;;;;;;;22.89;55.88;101248.09;5040969;28;20417;-89
2023/05/25 08:53:39;;;;;;;15.40;8.48;;;;;;;22.93;55.80;101236.81;5038105;28;20399;-89
2023/05/25 08:56:19;;;;;;;14.53;7.40;;;;;;;22.73;55.86;101235.31;5053826;28;20382;-91
2023/05/25 08:59:01;;;;;;;19.73;7.38;;;;;;;22.56;55.68;101220.91;5071697;28;20397;-92
2023/05/25 09:01:30;;;;;;;16.92;7.13;;;;;;;22.70;55.74;101217.69;5063230;28;20400;-90
2023/05/25 09:03:58;;;;;;;15.95;6.80;;;;;;;22.75;55.63;101221.59;5043191;28;20397;-92
2023/05/25 09:06:25;;;;;;;17.40;7.40;;;;;;;22.73;56.18;101227.22;5057416;28;20382;-93
2023/05/25 09:08:52;;;;;;;18.90;8.32;;;;;;;22.64;56.44;101240.28;5060407;28;20411;-92
2023/05/25 09:11:20;;;;;;;19.77;8.65;;;;;;;22.63;57.57;101237.81;5077766;28;20398;-92
2023/05/25 09:13:46;;;;;;;19.37;8.87;;;;;;;22.57;57.83;101241.47;5044340;28;20409;-92
2023/05/25 09:16:11;;;;;;;14.45;7.68;;;;;;;22.59;58.00;101242.88;5047793;28;20414;-89
2023/05/25 09:18:37;;;;;;;18.25;8.95;;;;;;;22.55;58.09;101236.31;5046991;28;20369;-88
2023/05/25 09:21:03;;;;;;;19.47;7.40;;;;;;;22.53;58.61;101246.53;5036930;28;20394;-87
2023/05/25 09:23:29;;;;;;;13.57;6.97;;;;;;;22.62;58.88;101238.88;5043847;28;20396;-87
2023/05/25 09:25:56;;;;;;;15.93;7.95;;;;;;;22.82;59.10;101247.41;5048818;28;20386;-88
2023/05/25 09:28:21;;;;;;;16.27;7.97;;;;;;;22.88;59.52;101245.63;5055025;28;20500;-85
2023/05/25 09:30:47;;;;;;;19.07;8.10;;;;;;;22.94;59.27;101249.25;5031721;28;20412;-86
2023/05/25 09:33:16;;;;;;;14.57;8.17;;;;;;;22.94;59.87;101250.09;5034161;28;20408;-85
2023/05/25 09:35:43;;;;;;;16.65;7.78;;;;;;;23.08;59.43;101246.09;5051732;28;20383;-86
2023/05/25 09:38:08;;;;;;;15.15;8.75;;;;;;;23.23;58.96;101242.03;5054374;28;20383;-85
2023/05/25 09:40:35;;;;;;;13.80;7.20;;;;;;;23.39;58.37;101240.41;5048697;28;20402;-86
2023/05/25 09:43:02;;;;;;;15.88;7.88;;;;;;;23.47;57.94;101251.66;5053556;28;20848;-85
2023/05/25 09:45:28;;;;;;;15.13;7.72;;;;;;;23.60;58.85;101241.59;5050989;28;21009;-84
2023/05/25 09:47:58;;;;;;;15.88;7.28;;;;;;;23.73;58.02;101237.75;5050808;28;20440;-84
2023/05/25 09:50:25;;;;;;;11.75;6.97;;;;;;;23.75;57.34;101241.88;5035942;28;20398;-84
2023/05/25 09:52:58;;;;;;;9.27;6.90;;;;;;;23.85;56.56;101241.25;5037405;28;20390;-84
2023/05/25 09:55:28;;;;;;;12.73;7.25;;;;;;;24.07;56.57;101245.91;5034883;28;20400;-85
2023/05/25 09:57:54;;;;;;;10.85;7.65;;;;;;;24.13;56.38;101239.50;5034191;28;20845;-85
2023/05/25 10:00:24;;;;;;;14.95;8.20;;;;;;;24.27;56.82;101237.28;5034316;28;20388;-86
2023/05/25 10:02:50;;;;;;;11.80;7.35;;;;;;;24.40;55.75;101237.75;5050614;28;20395;-86
2023/05/25 10:05:16;;;;;;;11.57;6.10;;;;;;;24.41;54.75;101230.44;5033752;28;20780;-84
2023/05/25 10:07:45;;;;;;;13.40;6.97;;;;;;;24.47;53.54;101228.59;5039233;28;20499;-85
2023/05/25 10:10:16;;;;;;;10.52;6.70;;;;;;;24.58;53.48;101230.44;5036989;28;20382;-84
2023/05/25 10:12:43;;;;;;;13.23;6.40;;;;;;;24.67;53.73;101226.22;5033730;28;20544;-83
2023/05/25 10:15:11;;;;;;;11.25;6.50;;;;;;;24.75;53.90;101231.19;5034245;28;20469;-84
2023/05/25 10:17:46;;;;;;;11.02;5.60;;;;;;;24.79;53.87;101226.91;5038178;28;20703;-84
2023/05/25 10:20:14;;;;;;;12.75;6.28;;;;;;;24.98;53.22;101234.72;5038863;28;20442;-84
2023/05/25 10:22:48;;;;;;;12.60;6.32;;;;;;;25.06;52.43;101239.66;5022472;28;20448;-85
2023/05/25 10:25:13;;;;;;;10.43;5.40;;;;;;;25.13;52.49;101225.91;5037929;28;20900;-85
2023/05/25 10:28:00;;;;;;;15.00;6.00;;;;;;;25.25;51.66;101225.81;5025475;28;20454;-85
2023/05/25 10:30:26;;;;;;;8.32;5.50;;;;;;;25.48;51.09;101227.38;5018483;28;20447;-85
2023/05/25 10:32:55;;;;;;;16.63;5.93;;;;;;;25.66;50.52;101235.16;5020841;28;20467;-86
2023/05/25 10:35:24;;;;;;;13.57;5.93;;;;;;;25.71;50.11;101223.50;5018028;28;20408;-84
2023/05/25 10:37:52;;;;;;;10.63;4.95;;;;;;;25.75;48.43;101224.63;5036137;28;20387;-85
2023/05/25 10:40:22;;;;;;;10.27;5.50;;;;;;;25.83;48.57;101217.91;5039351;28;20487;-85
2023/05/25 10:42:49;;;;;;;14.02;5.57;;;;;;;25.87;48.19;101214.38;5028145;28;20496;-84
2023/05/25 10:45:16;;;;;;;11.10;5.22;;;;;;;25.84;47.17;101211.38;5023011;28;20384;-85
2023/05/25 10:47:42;;;;;;;8.55;4.32;;;;;;;25.98;47.01;101206.34;5020417;28;20496;-84
2023/05/25 10:50:25;;;;;;;8.27;4.72;;;;;;;26.15;46.41;101209.72;5020923;28;20395;-86
2023/05/25 10:53:02;;;;;;;13.82;5.05;;;;;;;26.36;46.13;101209.84;5028760;28;20388;-86
2023/05/25 10:55:41;;;;;;;13.15;4.70;;;;;;;26.41;45.89;101207.16;5036051;28;20389;-85
2023/05/25 10:58:11;;;;;;;14.15;4.68;;;;;;;26.50;45.00;101205.56;5018261;28;20678;-83
2023/05/25 11:00:37;;;;;;;11.77;4.65;;;;;;;26.59;44.30;101195.00;5020517;28;20438;-84
2023/05/25 11:03:04;;;;;;;10.23;4.35;;;;;;;26.65;43.94;101200.22;5044717;28;20380;-86
2023/05/25 11:05:31;;;;;;;11.18;4.15;;;;;;;26.76;43.44;101197.53;5020759;28;20431;-84
2023/05/25 11:07:57;;;;;;;7.88;4.28;;;;;;;26.87;42.80;101191.06;5019347;28;20399;-86
2023/05/25 11:10:48;;;;;;;8.57;4.53;;;;;;;26.96;42.49;101188.63;5017143;28;20388;-84
2023/05/25 11:13:32;;;;;;;13.85;7.55;;;;;;;27.04;43.01;101177.22;5019710;28;20399;-88
2023/05/25 11:16:29;;;;;;;14.25;4.55;;;;;;;27.24;42.67;101176.41;5019901;28;20399;-84
2023/05/25 11:18:57;;;;;;;12.27;4.60;;;;;;;27.38;41.78;101168.56;5004096;28;20701;-85